This is the latest recevied weather packets stored in our database for station/object N2PUI. If no packets are shown the sender has not sent any weather packets the latest 10 day(s).
| Time | Temp. | Humidity | Pressure | Rain* | Wind** | Luminosity | Snow |
|---|---|---|---|---|---|---|---|
| 1777436884 | 11.67° C | 71% | 1016.5 hPa | 0 mm | - | 0 W/m² | - |
| 1777436582 | 11.67° C | 72% | 1016.3 hPa | 0 mm | - | 0 W/m² | - |
| 1777436277 | 11.67° C | 72% | 1016.3 hPa | 0 mm | - | 0 W/m² | - |
| 1777435675 | 11.67° C | 71% | 1016.5 hPa | 0 mm | - | 0 W/m² | - |
| 1777435366 | 11.67° C | 71% | 1016.2 hPa | 0 mm | - | 0 W/m² | - |
| 1777435065 | 11.67° C | 70% | 1016.3 hPa | 0 mm | - | 0 W/m² | - |
| 1777434762 | 11.67° C | 71% | 1016.4 hPa | 0 mm | - | 0 W/m² | - |
| 1777434456 | 11.67° C | 71% | 1016.4 hPa | 0 mm | - | 0 W/m² | - |
| 1777434154 | 11.67° C | 70% | 1016.2 hPa | 0 mm | - | 0 W/m² | - |
| 1777433849 | 11.67° C | 70% | 1016.3 hPa | 0 mm | - | 0 W/m² | - |
| 1777433546 | 11.67° C | 70% | 1016.4 hPa | 0 mm | - | 0 W/m² | - |
| 1777433241 | 11.67° C | 70% | 1016.5 hPa | 0 mm | - | 0 W/m² | - |
| 1777432938 | 11.67° C | 70% | 1016.8 hPa | 0 mm | - | 0 W/m² | - |
| 1777432637 | 11.67° C | 70% | 1017 hPa | 0 mm | - | 0 W/m² | - |
| 1777432335 | 11.67° C | 70% | 1017 hPa | 0 mm | - | 0 W/m² | - |
| 1777430205 | 11.67° C | 70% | 1016.4 hPa | 0 mm | - | 0 W/m² | - |
| 1777429598 | 11.67° C | 70% | 1016.8 hPa | 0 mm | - | 0 W/m² | - |
| 1777423824 | 12.22° C | 68% | 1016.7 hPa | 0 mm | - | 0 W/m² | - |
| 1777421696 | 12.22° C | 69% | 1016.5 hPa | 0 mm | - | 0 W/m² | - |
| 1777421391 | 12.22° C | 68% | 1016.3 hPa | 0 mm | - | 0 W/m² | - |
| 1777420480 | 12.22° C | 68% | 1016.7 hPa | 0 mm | - | 0 W/m² | - |
| 1777408642 | 13.89° C | 54% | 1017.4 hPa | 0 mm | - | 108 W/m² | - |
| 1777408037 | 13.33° C | 56% | 1017.4 hPa | 0 mm | - | 126 W/m² | - |
| 1777407733 | 13.89° C | 54% | 1017.6 hPa | 0 mm | - | 94 W/m² | - |
| 1777407428 | 13.89° C | 53% | 1017.5 hPa | 0 mm | - | 88 W/m² | - |
* Rain latest hour (hover to see other rain measurements)
** Current wind speed in m/s (hover to see current wind gust speed)